createdAt,value
2023-04-10T00:00:06.973Z,17.63
2023-04-10T00:02:34.123Z,19.50
2023-04-10T00:05:01.707Z,18.60
2023-04-10T00:07:28.940Z,20.70
2023-04-10T00:09:56.027Z,17.00
2023-04-10T00:12:23.253Z,21.60
2023-04-10T00:14:50.674Z,22.73
2023-04-10T00:17:17.761Z,22.58
2023-04-10T00:19:44.918Z,23.48
2023-04-10T00:22:12.094Z,23.05
2023-04-10T00:24:39.235Z,19.77
2023-04-10T00:27:06.350Z,21.88
2023-04-10T00:29:33.538Z,20.77
2023-04-10T00:32:00.577Z,19.33
2023-04-10T00:34:27.765Z,22.38
2023-04-10T00:36:54.918Z,17.73
2023-04-10T00:39:21.995Z,19.88
2023-04-10T00:41:49.122Z,18.10
2023-04-10T00:44:16.510Z,20.90
2023-04-10T00:46:43.841Z,18.10
2023-04-10T00:49:11.405Z,21.55
2023-04-10T00:51:39.152Z,21.48
2023-04-10T00:54:06.829Z,18.73
2023-04-10T00:56:34.130Z,20.58
2023-04-10T00:59:05.160Z,18.70
2023-04-10T01:01:33.819Z,17.38
2023-04-10T01:04:01.372Z,18.55
2023-04-10T01:06:32.032Z,17.08
2023-04-10T01:09:34.377Z,19.88
2023-04-10T01:12:31.145Z,17.90
2023-04-10T01:15:13.224Z,18.67
2023-04-10T01:17:55.088Z,18.45
2023-04-10T01:20:36.072Z,17.73
2023-04-10T01:23:21.605Z,16.75
2023-04-10T01:25:48.672Z,16.38
2023-04-10T01:28:25.001Z,16.33
2023-04-10T01:30:58.552Z,17.58
2023-04-10T01:33:43.770Z,17.20
2023-04-10T01:36:11.846Z,15.85
2023-04-10T01:38:44.424Z,17.23
2023-04-10T01:41:12.946Z,13.20
2023-04-10T01:43:41.905Z,15.02
2023-04-10T01:46:10.362Z,10.77
2023-04-10T01:48:37.956Z,11.77
2023-04-10T01:51:08.606Z,12.07
2023-04-10T01:53:36.689Z,10.57
2023-04-10T01:56:05.005Z,12.48
2023-04-10T01:58:39.379Z,13.90
2023-04-10T02:01:07.633Z,11.25
2023-04-10T02:03:35.629Z,13.75
2023-04-10T02:06:18.672Z,11.15
2023-04-10T02:09:21.399Z,13.25
2023-04-10T02:11:56.002Z,14.45
2023-04-10T02:14:28.721Z,14.43
2023-04-10T02:16:56.768Z,13.23
2023-04-10T02:19:25.877Z,12.63
2023-04-10T02:21:53.876Z,14.30
2023-04-10T02:24:21.424Z,14.13
2023-04-10T02:26:50.143Z,15.93
2023-04-10T02:29:18.029Z,13.73
2023-04-10T02:31:46.439Z,11.57
2023-04-10T02:34:14.617Z,14.32
2023-04-10T02:36:42.141Z,12.27
2023-04-10T02:39:11.669Z,12.82
2023-04-10T02:41:47.694Z,14.55
2023-04-10T02:44:15.036Z,14.52
2023-04-10T02:46:43.017Z,12.93
2023-04-10T02:49:11.505Z,12.52
2023-04-10T02:51:38.726Z,13.95
2023-04-10T02:54:06.207Z,13.13
2023-04-10T02:56:35.252Z,14.93
2023-04-10T02:59:02.676Z,11.48
2023-04-10T03:01:31.337Z,11.82
2023-04-10T03:03:59.542Z,12.75
2023-04-10T03:06:33.550Z,14.55
2023-04-10T03:09:00.978Z,11.65
2023-04-10T03:11:28.323Z,13.15
2023-04-10T03:13:56.222Z,10.75
2023-04-10T03:16:23.477Z,10.38
2023-04-10T03:18:50.682Z,11.43
2023-04-10T03:21:17.860Z,13.05
2023-04-10T03:23:44.972Z,15.00
2023-04-10T03:26:12.107Z,10.55
2023-04-10T03:28:39.940Z,15.68
2023-04-10T03:31:10.884Z,10.13
2023-04-10T03:33:39.288Z,14.07
2023-04-10T03:36:07.202Z,12.15
2023-04-10T03:38:34.272Z,12.77
2023-04-10T03:41:01.401Z,13.38
2023-04-10T03:43:34.020Z,13.15
2023-04-10T03:46:03.208Z,14.23
2023-04-10T03:48:30.821Z,12.07
2023-04-10T03:50:58.469Z,12.27
2023-04-10T03:53:25.771Z,13.55
2023-04-10T03:55:54.471Z,10.15
2023-04-10T03:58:23.097Z,12.55
2023-04-10T04:00:51.757Z,12.57
2023-04-10T04:03:31.675Z,14.05
2023-04-10T04:06:28.144Z,11.48
2023-04-10T04:09:10.861Z,11.90
2023-04-10T04:12:04.090Z,13.55
2023-04-10T04:14:49.906Z,14.55
2023-04-10T04:17:37.393Z,13.10
2023-04-10T04:20:06.314Z,12.82
2023-04-10T04:23:11.935Z,14.82
2023-04-10T04:28:41.592Z,18.00
2023-04-10T04:31:22.376Z,18.92
2023-04-10T04:34:07.886Z,14.65
2023-04-10T04:36:53.438Z,11.55
2023-04-10T04:39:40.870Z,12.88
2023-04-10T04:42:20.767Z,12.57
2023-04-10T04:47:28.166Z,11.27
2023-04-10T04:50:07.390Z,12.18
2023-04-10T04:52:49.710Z,14.40
2023-04-10T04:55:35.719Z,13.27
2023-04-10T04:58:41.020Z,13.80
2023-04-10T05:01:17.001Z,13.30
2023-04-10T05:03:58.346Z,19.08
2023-04-10T05:06:38.798Z,13.23
2023-04-10T05:09:17.472Z,12.02
2023-04-10T05:12:01.760Z,11.30
2023-04-10T05:14:49.157Z,12.63
2023-04-10T05:17:42.375Z,11.73
2023-04-10T05:20:41.853Z,12.07
2023-04-10T05:23:25.101Z,15.75
2023-04-10T05:26:06.831Z,14.20
2023-04-10T05:28:57.109Z,12.85
2023-04-10T05:31:24.273Z,12.55
2023-04-10T05:34:08.862Z,13.68
2023-04-10T05:36:59.229Z,12.57
2023-04-10T05:40:05.697Z,14.25
2023-04-10T05:42:51.361Z,13.70
2023-04-10T05:45:31.071Z,14.80
2023-04-10T05:47:58.167Z,12.45
2023-04-10T05:50:44.027Z,16.83
2023-04-10T05:53:37.235Z,19.05
2023-04-10T05:56:24.553Z,13.93
2023-04-10T05:59:17.738Z,15.50
2023-04-10T06:02:14.062Z,14.60
2023-04-10T06:04:41.522Z,17.75
2023-04-10T06:07:08.795Z,15.98
2023-04-10T06:09:36.011Z,15.68
2023-04-10T06:12:06.166Z,13.13
2023-04-10T06:14:33.591Z,17.13
2023-04-10T06:17:01.362Z,15.10
2023-04-10T06:19:28.762Z,14.60
2023-04-10T06:21:56.793Z,17.95
2023-04-10T06:24:24.206Z,16.65
2023-04-10T06:26:52.029Z,18.38
2023-04-10T06:29:19.284Z,17.17
2023-04-10T06:31:46.746Z,19.42
2023-04-10T06:34:13.932Z,17.58
2023-04-10T06:36:52.146Z,15.75
2023-04-10T06:39:20.441Z,17.25
2023-04-10T06:41:48.310Z,18.70
2023-04-10T06:46:55.828Z,18.60
2023-04-10T06:49:23.304Z,22.27
2023-04-10T06:51:50.716Z,21.52
2023-04-10T06:54:18.550Z,19.98
2023-04-10T06:56:45.677Z,17.45
2023-04-10T06:59:12.749Z,19.27
2023-04-10T07:01:40.002Z,21.35
2023-04-10T07:04:07.382Z,19.73
2023-04-10T07:06:34.575Z,18.05
2023-04-10T07:09:01.711Z,18.10
2023-04-10T07:11:28.852Z,19.80
2023-04-10T07:13:58.720Z,21.17
2023-04-10T07:16:26.175Z,21.85
2023-04-10T07:18:53.523Z,21.42
2023-04-10T07:21:21.591Z,18.02
2023-04-10T07:23:48.804Z,18.02
2023-04-10T07:26:16.029Z,18.55
2023-04-10T07:28:43.408Z,15.48
2023-04-10T07:31:11.650Z,15.18
2023-04-10T07:33:39.103Z,15.38
2023-04-10T07:36:07.218Z,18.45
2023-04-10T07:38:34.565Z,19.85
2023-04-10T07:41:01.703Z,18.05
2023-04-10T07:43:28.820Z,16.50
2023-04-10T07:45:56.577Z,17.95
2023-04-10T07:48:23.993Z,18.98
2023-04-10T07:50:51.432Z,16.38
2023-04-10T07:53:18.770Z,18.30
2023-04-10T07:55:49.426Z,14.60
2023-04-10T07:58:16.744Z,18.73
2023-04-10T08:00:43.918Z,15.95
2023-04-10T08:03:13.457Z,15.48
2023-04-10T08:05:40.818Z,16.70
2023-04-10T08:08:08.150Z,21.10
2023-04-10T08:10:39.576Z,15.98
2023-04-10T08:13:06.912Z,17.02
2023-04-10T08:15:34.010Z,17.83
2023-04-10T08:18:01.185Z,17.73
2023-04-10T08:20:28.746Z,18.45
2023-04-10T08:22:58.938Z,19.30
2023-04-10T08:25:31.450Z,18.27
2023-04-10T08:28:00.664Z,18.55
2023-04-10T08:30:27.803Z,16.83
2023-04-10T08:32:54.916Z,22.77
2023-04-10T08:35:22.061Z,22.38
2023-04-10T08:37:50.051Z,23.33
2023-04-10T08:40:29.535Z,22.25
2023-04-10T08:42:56.667Z,22.35
2023-04-10T08:45:23.792Z,21.15
2023-04-10T08:47:53.580Z,18.13
2023-04-10T08:50:21.877Z,21.90
2023-04-10T08:52:53.072Z,21.00
2023-04-10T08:55:21.784Z,24.35
2023-04-10T08:57:57.994Z,18.83
2023-04-10T09:00:29.188Z,20.40
2023-04-10T09:02:58.640Z,21.50
2023-04-10T09:05:29.500Z,21.30
2023-04-10T09:07:57.248Z,19.65
2023-04-10T09:10:24.395Z,21.70
2023-04-10T09:12:52.675Z,22.52
2023-04-10T09:15:20.935Z,24.38
2023-04-10T09:18:04.141Z,25.50
2023-04-10T09:20:33.450Z,27.70
2023-04-10T09:23:02.004Z,26.77
2023-04-10T09:25:34.606Z,24.67
2023-04-10T09:28:10.850Z,23.77
2023-04-10T09:30:40.355Z,22.77
2023-04-10T09:33:36.345Z,23.80
2023-04-10T09:36:04.473Z,29.17
2023-04-10T09:38:31.571Z,25.27
2023-04-10T09:41:08.105Z,27.63
2023-04-10T09:43:35.810Z,24.55
2023-04-10T09:46:02.837Z,24.70
2023-04-10T09:48:29.841Z,27.17
2023-04-10T09:50:59.373Z,22.73
2023-04-10T09:55:57.395Z,26.77
2023-04-10T09:58:25.554Z,25.08
2023-04-10T10:00:53.319Z,24.58
2023-04-10T10:04:48.738Z,25.00
2023-04-10T10:07:17.204Z,23.10
2023-04-10T10:09:46.317Z,22.33
2023-04-10T10:12:18.060Z,27.05
2023-04-10T10:15:01.439Z,26.05
2023-04-10T10:17:34.855Z,23.67
2023-04-10T10:20:05.912Z,22.60
2023-04-10T10:22:33.313Z,22.25
2023-04-10T10:25:02.089Z,23.80
2023-04-10T10:27:32.776Z,23.42
2023-04-10T10:30:03.051Z,22.15
2023-04-10T10:32:35.933Z,21.02
2023-04-10T10:35:08.079Z,20.50
2023-04-10T10:37:36.050Z,21.10
2023-04-10T10:40:25.197Z,20.40
2023-04-10T10:42:58.619Z,19.70
2023-04-10T10:45:38.103Z,23.92
2023-04-10T10:48:07.078Z,20.77
2023-04-10T10:50:59.173Z,19.30
2023-04-10T10:53:40.632Z,20.85
2023-04-10T10:56:19.871Z,57.13
2023-04-10T10:58:48.101Z,17.48
2023-04-10T11:01:16.357Z,21.05
2023-04-10T11:03:47.251Z,18.17
2023-04-10T11:06:19.813Z,15.98
2023-04-10T11:08:55.156Z,53.88
2023-04-10T11:11:27.609Z,20.23
2023-04-10T11:13:57.803Z,17.25
2023-04-10T11:16:42.166Z,18.38
2023-04-10T11:19:15.890Z,17.65
2023-04-10T11:22:05.955Z,18.27
2023-04-10T11:24:56.492Z,20.23
2023-04-10T11:30:29.341Z,24.20
2023-04-10T11:32:57.074Z,15.75
2023-04-10T11:35:25.991Z,13.70
2023-04-10T11:37:53.220Z,16.88
2023-04-10T11:40:20.649Z,16.35
2023-04-10T11:42:48.496Z,11.73
2023-04-10T11:45:26.818Z,14.65
2023-04-10T11:47:55.201Z,13.40
2023-04-10T11:50:22.472Z,16.35
2023-04-10T11:52:54.668Z,14.68
2023-04-10T11:55:38.097Z,14.27
2023-04-10T11:58:05.216Z,14.65
2023-04-10T12:00:32.442Z,12.27
2023-04-10T12:02:59.782Z,13.77
2023-04-10T12:05:27.232Z,14.18
2023-04-10T12:07:55.949Z,13.43
2023-04-10T12:10:23.012Z,13.30
2023-04-10T12:12:50.376Z,12.73
2023-04-10T12:15:27.745Z,12.90
2023-04-10T12:17:55.851Z,9.50
2023-04-10T12:20:26.825Z,11.30
2023-04-10T12:22:57.007Z,10.73
2023-04-10T12:25:24.396Z,9.35
2023-04-10T12:27:51.997Z,7.88
2023-04-10T12:30:19.287Z,12.43
2023-04-10T12:32:55.132Z,13.85
2023-04-10T12:35:38.933Z,11.98
2023-04-10T12:38:06.260Z,12.98
2023-04-10T12:40:33.446Z,13.48
2023-04-10T12:43:00.501Z,9.52
2023-04-10T12:45:44.081Z,13.63
2023-04-10T12:48:11.398Z,15.23
2023-04-10T12:50:48.492Z,12.45
2023-04-10T12:53:15.978Z,13.10
2023-04-10T12:56:06.617Z,12.88
2023-04-10T12:58:33.905Z,12.05
2023-04-10T13:01:06.466Z,11.63
2023-04-10T13:03:38.247Z,10.55
2023-04-10T13:06:07.616Z,7.18
2023-04-10T13:08:35.760Z,7.72
2023-04-10T13:11:03.865Z,10.50
2023-04-10T13:13:33.026Z,10.35
2023-04-10T13:16:00.668Z,10.18
2023-04-10T13:18:27.950Z,11.18
2023-04-10T13:20:55.058Z,8.20
2023-04-10T13:23:22.283Z,9.23
2023-04-10T13:25:49.526Z,11.15
2023-04-10T13:28:19.027Z,10.98
2023-04-10T13:30:46.044Z,11.47
2023-04-10T13:33:13.211Z,11.10
2023-04-10T13:35:40.629Z,13.20
2023-04-10T13:38:09.524Z,7.82
2023-04-10T13:40:36.914Z,11.77
2023-04-10T13:43:04.435Z,10.75
2023-04-10T13:45:31.505Z,7.82
2023-04-10T13:47:58.597Z,7.15
2023-04-10T13:50:25.784Z,7.53
2023-04-10T13:52:53.854Z,7.47
2023-04-10T13:55:21.139Z,9.77
2023-04-10T13:57:48.202Z,8.18
2023-04-10T14:00:15.872Z,7.68
2023-04-10T14:02:43.661Z,9.45
2023-04-10T14:05:11.012Z,8.55
2023-04-10T14:07:38.127Z,7.68
2023-04-10T14:10:05.862Z,8.65
2023-04-10T14:12:32.935Z,10.07
2023-04-10T14:15:00.293Z,8.52
2023-04-10T14:17:28.300Z,6.30
2023-04-10T14:19:55.872Z,9.45
2023-04-10T14:22:23.176Z,5.75
2023-04-10T14:24:52.584Z,8.18
2023-04-10T14:27:23.561Z,8.77
2023-04-10T14:29:54.698Z,6.95
2023-04-10T14:32:22.780Z,8.07
2023-04-10T14:34:50.081Z,77.68
2023-04-10T14:37:19.285Z,8.88
2023-04-10T14:39:46.529Z,6.10
2023-04-10T14:42:13.790Z,7.88
2023-04-10T14:44:40.897Z,6.13
2023-04-10T14:47:08.275Z,6.32
2023-04-10T14:49:35.378Z,31.52
2023-04-10T14:52:02.408Z,7.70
2023-04-10T14:54:29.567Z,9.57
2023-04-10T14:56:58.498Z,4.68
2023-04-10T14:59:25.646Z,7.03
2023-04-10T15:01:54.253Z,6.68
2023-04-10T15:04:21.617Z,6.70
2023-04-10T15:06:48.863Z,8.10
2023-04-10T15:09:16.080Z,7.90
2023-04-10T15:11:43.149Z,8.15
2023-04-10T15:14:12.379Z,7.07
2023-04-10T15:16:39.628Z,10.85
2023-04-10T15:19:06.799Z,7.10
2023-04-10T15:21:34.378Z,7.28
2023-04-10T15:24:01.544Z,11.73
2023-04-10T15:26:28.642Z,7.90
2023-04-10T15:28:55.706Z,8.27
2023-04-10T15:31:24.325Z,6.78
2023-04-10T15:33:52.600Z,8.70
2023-04-10T15:36:19.967Z,8.50
2023-04-10T15:38:49.939Z,6.30
2023-04-10T15:41:17.617Z,5.00
2023-04-10T15:43:46.210Z,7.80
2023-04-10T15:46:14.318Z,8.70
2023-04-10T15:48:41.607Z,8.90
2023-04-10T15:51:08.893Z,7.60
2023-04-10T15:53:36.283Z,9.63
2023-04-10T15:56:07.581Z,8.70
2023-04-10T15:58:35.205Z,7.28
2023-04-10T16:01:02.525Z,8.52
2023-04-10T16:03:30.646Z,11.18
2023-04-10T16:05:58.605Z,6.80
2023-04-10T16:08:26.565Z,6.57
2023-04-10T16:10:54.422Z,8.55
2023-04-10T16:13:21.669Z,6.95
2023-04-10T16:15:49.707Z,8.15
2023-04-10T16:18:16.848Z,8.60
2023-04-10T16:20:44.153Z,9.60
2023-04-10T16:23:11.698Z,12.63
2023-04-10T16:25:38.883Z,9.55
2023-04-10T16:28:08.409Z,8.52
2023-04-10T16:30:36.477Z,9.20
2023-04-10T16:33:04.474Z,10.63
2023-04-10T16:35:31.844Z,11.27
2023-04-10T16:37:59.216Z,8.77
2023-04-10T16:40:32.810Z,9.27
2023-04-10T16:43:01.210Z,11.23
2023-04-10T16:45:28.304Z,11.55
2023-04-10T16:47:55.835Z,9.18
2023-04-10T16:50:23.229Z,11.50
2023-04-10T16:52:50.553Z,8.85
2023-04-10T16:55:17.765Z,8.70
2023-04-10T16:57:44.958Z,9.75
2023-04-10T17:00:12.462Z,9.70
2023-04-10T17:02:39.548Z,10.13
2023-04-10T17:05:06.904Z,8.30
2023-04-10T17:07:34.343Z,10.48
2023-04-10T17:10:01.722Z,10.02
2023-04-10T17:12:28.961Z,8.45
2023-04-10T17:14:56.376Z,11.82
2023-04-10T17:17:23.861Z,8.63
2023-04-10T17:19:51.142Z,9.35
2023-04-10T17:22:18.303Z,8.85
2023-04-10T17:24:46.630Z,9.77
2023-04-10T17:27:14.450Z,10.43
2023-04-10T17:29:41.977Z,9.13
2023-04-10T17:32:10.814Z,12.05
2023-04-10T17:34:38.775Z,9.37
2023-04-10T17:37:05.927Z,10.00
2023-04-10T17:39:33.267Z,12.45
2023-04-10T17:42:00.845Z,10.82
2023-04-10T17:44:28.061Z,12.55
2023-04-10T17:46:55.446Z,12.25
2023-04-10T17:49:23.037Z,11.07
2023-04-10T17:51:50.409Z,10.27
2023-04-10T17:54:17.731Z,10.90
2023-04-10T17:56:45.077Z,11.98
2023-04-10T17:59:12.360Z,10.90
2023-04-10T18:01:39.973Z,15.88
2023-04-10T18:04:07.580Z,12.40
2023-04-10T18:06:35.420Z,10.85
2023-04-10T18:09:02.764Z,14.93
2023-04-10T18:11:30.125Z,12.88
2023-04-10T18:13:57.316Z,14.63
2023-04-10T18:16:24.665Z,9.55
2023-04-10T18:18:52.212Z,11.48
2023-04-10T18:21:19.633Z,14.48
2023-04-10T18:23:46.763Z,12.90
2023-04-10T18:26:14.235Z,20.92
2023-04-10T18:28:43.407Z,16.60
2023-04-10T18:31:12.797Z,13.93
2023-04-10T18:33:39.971Z,13.15
2023-04-10T18:36:07.697Z,14.93
2023-04-10T18:38:35.114Z,12.15
2023-04-10T18:41:02.298Z,11.30
2023-04-10T18:43:29.620Z,12.40
2023-04-10T18:45:57.762Z,12.32
2023-04-10T18:48:24.986Z,11.90
2023-04-10T18:50:53.510Z,11.38
2023-04-10T18:53:21.553Z,12.77
2023-04-10T18:55:50.966Z,12.57
2023-04-10T18:58:19.398Z,11.95
2023-04-10T19:00:46.601Z,17.83
2023-04-10T19:03:14.533Z,15.02
2023-04-10T19:05:43.470Z,16.38
2023-04-10T19:08:16.910Z,17.70
2023-04-10T19:10:44.077Z,19.33
2023-04-10T19:13:12.869Z,15.38
2023-04-10T19:15:44.815Z,17.15
2023-04-10T19:18:14.824Z,18.67
2023-04-10T19:20:50.892Z,18.00
2023-04-10T19:23:21.173Z,17.38
2023-04-10T19:25:55.072Z,19.00
2023-04-10T19:28:26.426Z,18.13
2023-04-10T19:30:57.764Z,17.92
2023-04-10T19:33:25.650Z,17.70
2023-04-10T19:35:52.918Z,18.20
2023-04-10T19:38:20.195Z,19.98
2023-04-10T19:40:47.629Z,22.40
2023-04-10T19:43:14.882Z,19.77
2023-04-10T19:45:42.235Z,20.58
2023-04-10T19:48:10.023Z,22.50
2023-04-10T19:50:37.125Z,21.33
2023-04-10T19:53:04.701Z,20.35
2023-04-10T19:55:31.842Z,24.80
2023-04-10T19:57:59.209Z,22.10
2023-04-10T20:00:26.422Z,21.10
2023-04-10T20:02:54.017Z,26.13
2023-04-10T20:05:21.503Z,20.65
2023-04-10T20:07:48.651Z,22.50
2023-04-10T20:10:15.752Z,19.73
2023-04-10T20:12:42.821Z,22.98
2023-04-10T20:15:10.510Z,26.85
2023-04-10T20:17:38.851Z,28.42
2023-04-10T20:20:06.587Z,27.63
2023-04-10T20:22:33.780Z,30.15
2023-04-10T20:25:00.893Z,29.85
2023-04-10T20:27:28.009Z,31.73
2023-04-10T20:29:55.072Z,32.67
2023-04-10T20:32:22.247Z,37.80
2023-04-10T20:34:49.388Z,41.50
2023-04-10T20:37:21.907Z,50.35
2023-04-10T20:39:49.491Z,52.17
2023-04-10T20:42:17.377Z,51.83
2023-04-10T20:44:44.718Z,57.05
2023-04-10T20:47:12.029Z,52.80
2023-04-10T20:49:39.323Z,55.72
2023-04-10T20:52:07.343Z,54.17
2023-04-10T20:54:34.586Z,52.20
2023-04-10T20:57:02.046Z,58.85
2023-04-10T20:59:29.752Z,55.17
2023-04-10T21:01:57.113Z,48.85
2023-04-10T21:04:24.312Z,52.78
2023-04-10T21:06:51.523Z,52.95
2023-04-10T21:09:18.847Z,49.65
2023-04-10T21:11:46.235Z,49.22
2023-04-10T21:14:13.860Z,50.97
2023-04-10T21:16:42.750Z,44.80
2023-04-10T21:19:10.038Z,49.47
2023-04-10T21:21:37.359Z,52.83
2023-04-10T21:24:04.946Z,58.85
2023-04-10T21:26:32.118Z,59.65
2023-04-10T21:28:59.202Z,61.28
2023-04-10T21:31:26.475Z,57.83
2023-04-10T21:33:53.661Z,60.40
2023-04-10T21:36:21.029Z,59.25
2023-04-10T21:38:48.082Z,65.38
2023-04-10T21:41:15.658Z,58.90
2023-04-10T21:43:43.356Z,57.80
2023-04-10T21:46:11.127Z,57.33
2023-04-10T21:48:38.343Z,61.05
2023-04-10T21:51:05.995Z,63.47
2023-04-10T21:53:33.103Z,57.65
2023-04-10T21:56:00.125Z,56.90
2023-04-10T21:58:27.148Z,57.72
2023-04-10T22:00:54.747Z,55.63
2023-04-10T22:03:22.458Z,49.97
2023-04-10T22:05:50.733Z,53.45
2023-04-10T22:08:20.148Z,47.83
2023-04-10T22:10:48.250Z,57.17
2023-04-10T22:13:27.478Z,56.33
2023-04-10T22:15:58.302Z,52.80
2023-04-10T22:18:25.393Z,47.95
2023-04-10T22:20:52.496Z,50.72
2023-04-10T22:23:19.635Z,53.92
2023-04-10T22:25:47.733Z,50.00
2023-04-10T22:28:15.244Z,55.92
2023-04-10T22:30:42.349Z,49.28
2023-04-10T22:33:12.055Z,56.22
2023-04-10T22:35:39.266Z,48.22
2023-04-10T22:38:07.880Z,54.75
2023-04-10T22:40:35.191Z,47.33
2023-04-10T22:43:02.710Z,52.25
2023-04-10T22:45:30.782Z,54.60
2023-04-10T22:47:58.497Z,45.80
2023-04-10T22:50:26.295Z,51.42
2023-04-10T22:52:53.817Z,53.17
2023-04-10T22:55:21.348Z,52.50
2023-04-10T22:57:51.420Z,54.60
2023-04-10T23:00:20.105Z,53.90
2023-04-10T23:02:51.655Z,58.80
2023-04-10T23:05:19.646Z,51.30
2023-04-10T23:07:49.994Z,51.22
2023-04-10T23:12:44.870Z,54.85
2023-04-10T23:15:15.798Z,51.65
2023-04-10T23:17:44.886Z,50.58
2023-04-10T23:20:12.843Z,51.42
2023-04-10T23:22:55.398Z,48.60
2023-04-10T23:25:23.167Z,54.95
2023-04-10T23:27:56.541Z,54.63
2023-04-10T23:30:24.049Z,51.45
2023-04-10T23:32:51.574Z,55.38
2023-04-10T23:35:21.908Z,51.15
2023-04-10T23:37:52.974Z,50.10
2023-04-10T23:40:21.800Z,50.53
2023-04-10T23:42:49.350Z,51.05
2023-04-10T23:45:16.962Z,46.65
2023-04-10T23:47:44.322Z,50.45
2023-04-10T23:50:11.661Z,48.08
2023-04-10T23:52:38.968Z,47.80
2023-04-10T23:55:06.836Z,42.60
2023-04-10T23:57:33.983Z,45.88
